Culver, Minnesota
Current Conditions -  °F | °C
As of 5:55 PM on Saturday 25 Oct 2014 (Local Time) from KDLH Reporting Station
Clear Clear  
Wind Chill: 53°   Ceiling: Unl
Heat Index: 53°   Visibility: 10mi
Dew Point: 25°   Wind: 17mph
Humidity: 34%   Direction: 290°WNW
Pressure: 29.95"   Gusts: 25mph
Location:  46.8859°N, 92.4258°W
Report Text: KDLH 252255Z 29015G22KT 10SM CLR 12/M04 A2995 RMK AO2 PK WND 28026/2157 SLP149 T01171039
Loading
Personal Weather Stations






























Interactive Weather Map
Tropical Storm Tracking
New forecast layout! Learn more

10-Day Weather Forecast

Advertisements
Track Severe Weather on mobile